sensor_id;sensor_type;location;lat;lon;timestamp;temperature;humidity
20528;DHT22;23612;50.894;10.700;2023-04-24T00:00:16;10.00;99.90
20528;DHT22;23612;50.894;10.700;2023-04-24T00:02:43;10.00;99.90
20528;DHT22;23612;50.894;10.700;2023-04-24T00:05:13;10.00;99.90
20528;DHT22;23612;50.894;10.700;2023-04-24T00:07:40;10.10;99.90
20528;DHT22;23612;50.894;10.700;2023-04-24T00:10:06;10.10;99.90
20528;DHT22;23612;50.894;10.700;2023-04-24T00:12:31;10.20;99.90
20528;DHT22;23612;50.894;10.700;2023-04-24T00:14:57;10.20;99.90
20528;DHT22;23612;50.894;10.700;2023-04-24T00:17:22;10.30;99.90
20528;DHT22;23612;50.894;10.700;2023-04-24T00:19:48;10.20;99.90
20528;DHT22;23612;50.894;10.700;2023-04-24T00:22:16;10.30;99.90
20528;DHT22;23612;50.894;10.700;2023-04-24T00:24:42;10.30;99.90
20528;DHT22;23612;50.894;10.700;2023-04-24T00:27:08;10.30;99.90
20528;DHT22;23612;50.894;10.700;2023-04-24T00:29:33;10.30;99.90
20528;DHT22;23612;50.894;10.700;2023-04-24T00:31:59;10.30;99.90
20528;DHT22;23612;50.894;10.700;2023-04-24T00:34:24;10.30;99.90
20528;DHT22;23612;50.894;10.700;2023-04-24T00:36:50;10.30;99.90
20528;DHT22;23612;50.894;10.700;2023-04-24T00:39:18;10.20;99.90
20528;DHT22;23612;50.894;10.700;2023-04-24T00:41:44;10.20;99.90
20528;DHT22;23612;50.894;10.700;2023-04-24T00:44:10;10.20;99.90
20528;DHT22;23612;50.894;10.700;2023-04-24T00:46:36;10.20;99.90
20528;DHT22;23612;50.894;10.700;2023-04-24T00:49:02;10.20;99.90
20528;DHT22;23612;50.894;10.700;2023-04-24T00:51:28;10.20;99.90
20528;DHT22;23612;50.894;10.700;2023-04-24T00:53:53;10.20;99.90
20528;DHT22;23612;50.894;10.700;2023-04-24T00:56:19;10.20;99.90
20528;DHT22;23612;50.894;10.700;2023-04-24T00:58:45;10.20;99.90
20528;DHT22;23612;50.894;10.700;2023-04-24T01:01:10;10.10;99.90
20528;DHT22;23612;50.894;10.700;2023-04-24T01:03:36;10.20;99.90
20528;DHT22;23612;50.894;10.700;2023-04-24T01:06:03;10.10;99.90
20528;DHT22;23612;50.894;10.700;2023-04-24T01:08:29;10.10;99.90
20528;DHT22;23612;50.894;10.700;2023-04-24T01:10:55;10.10;99.90
20528;DHT22;23612;50.894;10.700;2023-04-24T01:13:22;10.00;99.90
20528;DHT22;23612;50.894;10.700;2023-04-24T01:15:48;10.00;99.90
20528;DHT22;23612;50.894;10.700;2023-04-24T01:18:14;10.00;99.90
20528;DHT22;23612;50.894;10.700;2023-04-24T01:20:40;10.00;99.90
20528;DHT22;23612;50.894;10.700;2023-04-24T01:23:07;10.00;99.90
20528;DHT22;23612;50.894;10.700;2023-04-24T01:25:33;10.00;99.90
20528;DHT22;23612;50.894;10.700;2023-04-24T01:28:00;10.00;99.90
20528;DHT22;23612;50.894;10.700;2023-04-24T01:30:27;10.00;99.90
20528;DHT22;23612;50.894;10.700;2023-04-24T01:32:53;10.00;99.90
20528;DHT22;23612;50.894;10.700;2023-04-24T01:35:19;10.00;99.90
20528;DHT22;23612;50.894;10.700;2023-04-24T01:37:45;9.90;99.90
20528;DHT22;23612;50.894;10.700;2023-04-24T01:40:11;9.90;99.90
20528;DHT22;23612;50.894;10.700;2023-04-24T01:42:36;10.00;99.90
20528;DHT22;23612;50.894;10.700;2023-04-24T01:45:03;9.90;99.90
20528;DHT22;23612;50.894;10.700;2023-04-24T01:47:31;9.90;99.90
20528;DHT22;23612;50.894;10.700;2023-04-24T01:49:57;10.00;99.90
20528;DHT22;23612;50.894;10.700;2023-04-24T01:52:22;10.00;99.90
20528;DHT22;23612;50.894;10.700;2023-04-24T01:54:48;10.00;99.90
20528;DHT22;23612;50.894;10.700;2023-04-24T01:57:14;9.90;99.90
20528;DHT22;23612;50.894;10.700;2023-04-24T01:59:40;9.90;99.90
20528;DHT22;23612;50.894;10.700;2023-04-24T02:02:05;9.90;99.90
20528;DHT22;23612;50.894;10.700;2023-04-24T02:04:31;9.80;99.90
20528;DHT22;23612;50.894;10.700;2023-04-24T02:06:57;9.90;99.90
20528;DHT22;23612;50.894;10.700;2023-04-24T02:09:22;9.90;99.90
20528;DHT22;23612;50.894;10.700;2023-04-24T02:11:48;9.90;99.90
20528;DHT22;23612;50.894;10.700;2023-04-24T02:14:13;9.80;99.90
20528;DHT22;23612;50.894;10.700;2023-04-24T02:16:39;9.90;99.90
20528;DHT22;23612;50.894;10.700;2023-04-24T02:19:04;9.90;99.90
20528;DHT22;23612;50.894;10.700;2023-04-24T02:21:30;9.80;99.90
20528;DHT22;23612;50.894;10.700;2023-04-24T02:23:56;9.70;99.90
20528;DHT22;23612;50.894;10.700;2023-04-24T02:26:22;9.70;99.90
20528;DHT22;23612;50.894;10.700;2023-04-24T02:28:47;9.70;99.90
20528;DHT22;23612;50.894;10.700;2023-04-24T02:31:13;9.80;99.90
20528;DHT22;23612;50.894;10.700;2023-04-24T02:33:38;9.80;99.90
20528;DHT22;23612;50.894;10.700;2023-04-24T02:36:04;9.70;99.90
20528;DHT22;23612;50.894;10.700;2023-04-24T02:38:29;9.70;99.90
20528;DHT22;23612;50.894;10.700;2023-04-24T02:40:55;9.70;99.90
20528;DHT22;23612;50.894;10.700;2023-04-24T02:43:21;9.80;99.90
20528;DHT22;23612;50.894;10.700;2023-04-24T02:45:46;9.90;99.90
20528;DHT22;23612;50.894;10.700;2023-04-24T02:48:12;9.90;99.90
20528;DHT22;23612;50.894;10.700;2023-04-24T02:50:37;9.90;99.90
20528;DHT22;23612;50.894;10.700;2023-04-24T02:53:03;9.90;99.90
20528;DHT22;23612;50.894;10.700;2023-04-24T02:55:28;9.80;99.90
20528;DHT22;23612;50.894;10.700;2023-04-24T02:57:54;9.80;99.90
20528;DHT22;23612;50.894;10.700;2023-04-24T03:00:20;9.80;99.90
20528;DHT22;23612;50.894;10.700;2023-04-24T03:02:45;9.80;99.90
20528;DHT22;23612;50.894;10.700;2023-04-24T03:05:11;9.80;99.90
20528;DHT22;23612;50.894;10.700;2023-04-24T03:07:37;9.80;99.90
20528;DHT22;23612;50.894;10.700;2023-04-24T03:10:04;9.80;99.90
20528;DHT22;23612;50.894;10.700;2023-04-24T03:12:30;9.80;99.90
20528;DHT22;23612;50.894;10.700;2023-04-24T03:14:56;9.80;99.90
20528;DHT22;23612;50.894;10.700;2023-04-24T03:17:22;9.80;99.90
20528;DHT22;23612;50.894;10.700;2023-04-24T03:19:47;9.80;99.90
20528;DHT22;23612;50.894;10.700;2023-04-24T03:22:13;9.80;99.90
20528;DHT22;23612;50.894;10.700;2023-04-24T03:24:38;9.80;99.90
20528;DHT22;23612;50.894;10.700;2023-04-24T03:27:03;9.90;99.90
20528;DHT22;23612;50.894;10.700;2023-04-24T03:29:29;9.90;99.90
20528;DHT22;23612;50.894;10.700;2023-04-24T03:31:54;9.90;99.90
20528;DHT22;23612;50.894;10.700;2023-04-24T03:34:20;9.90;99.90
20528;DHT22;23612;50.894;10.700;2023-04-24T03:36:45;9.90;99.90
20528;DHT22;23612;50.894;10.700;2023-04-24T03:39:13;9.90;99.90
20528;DHT22;23612;50.894;10.700;2023-04-24T03:41:38;9.90;99.90
20528;DHT22;23612;50.894;10.700;2023-04-24T03:44:04;10.00;99.90
20528;DHT22;23612;50.894;10.700;2023-04-24T03:46:29;9.90;99.90
20528;DHT22;23612;50.894;10.700;2023-04-24T03:48:55;9.90;99.90
20528;DHT22;23612;50.894;10.700;2023-04-24T03:51:20;9.90;99.90
20528;DHT22;23612;50.894;10.700;2023-04-24T03:53:47;9.90;99.90
20528;DHT22;23612;50.894;10.700;2023-04-24T03:56:12;9.90;99.90
20528;DHT22;23612;50.894;10.700;2023-04-24T03:58:38;9.90;99.90
20528;DHT22;23612;50.894;10.700;2023-04-24T04:01:03;9.90;99.90
20528;DHT22;23612;50.894;10.700;2023-04-24T04:03:29;9.90;99.90
20528;DHT22;23612;50.894;10.700;2023-04-24T04:05:54;9.80;99.90
20528;DHT22;23612;50.894;10.700;2023-04-24T04:08:20;9.80;99.90
20528;DHT22;23612;50.894;10.700;2023-04-24T04:10:45;9.80;99.90
20528;DHT22;23612;50.894;10.700;2023-04-24T04:13:11;9.80;99.90
20528;DHT22;23612;50.894;10.700;2023-04-24T04:15:36;9.80;99.90
20528;DHT22;23612;50.894;10.700;2023-04-24T04:18:02;9.80;99.90
20528;DHT22;23612;50.894;10.700;2023-04-24T04:20:27;9.80;99.90
20528;DHT22;23612;50.894;10.700;2023-04-24T04:22:53;9.80;99.90
20528;DHT22;23612;50.894;10.700;2023-04-24T04:25:18;9.80;99.90
20528;DHT22;23612;50.894;10.700;2023-04-24T04:27:47;9.90;99.90
20528;DHT22;23612;50.894;10.700;2023-04-24T04:30:14;9.90;99.90
20528;DHT22;23612;50.894;10.700;2023-04-24T04:32:40;9.90;99.90
20528;DHT22;23612;50.894;10.700;2023-04-24T04:35:05;9.90;99.90
20528;DHT22;23612;50.894;10.700;2023-04-24T04:37:32;9.90;99.90
20528;DHT22;23612;50.894;10.700;2023-04-24T04:40:02;10.00;99.90
20528;DHT22;23612;50.894;10.700;2023-04-24T04:42:32;10.00;99.90
20528;DHT22;23612;50.894;10.700;2023-04-24T04:44:58;9.90;99.90
20528;DHT22;23612;50.894;10.700;2023-04-24T04:47:23;9.90;99.90
20528;DHT22;23612;50.894;10.700;2023-04-24T04:49:49;9.90;99.90
20528;DHT22;23612;50.894;10.700;2023-04-24T04:52:17;9.90;99.90
20528;DHT22;23612;50.894;10.700;2023-04-24T04:54:42;9.80;99.90
20528;DHT22;23612;50.894;10.700;2023-04-24T04:57:08;9.90;99.90
20528;DHT22;23612;50.894;10.700;2023-04-24T04:59:34;9.80;99.90
20528;DHT22;23612;50.894;10.700;2023-04-24T05:01:59;9.90;99.90
20528;DHT22;23612;50.894;10.700;2023-04-24T05:04:25;9.90;99.90
20528;DHT22;23612;50.894;10.700;2023-04-24T05:06:51;9.90;99.90
20528;DHT22;23612;50.894;10.700;2023-04-24T05:09:17;10.00;99.90
20528;DHT22;23612;50.894;10.700;2023-04-24T05:11:42;10.00;99.90
20528;DHT22;23612;50.894;10.700;2023-04-24T05:14:08;10.10;99.90
20528;DHT22;23612;50.894;10.700;2023-04-24T05:16:34;10.20;99.90
20528;DHT22;23612;50.894;10.700;2023-04-24T05:18:59;10.20;99.90
20528;DHT22;23612;50.894;10.700;2023-04-24T05:21:25;10.30;99.90
20528;DHT22;23612;50.894;10.700;2023-04-24T05:23:52;10.30;99.90
20528;DHT22;23612;50.894;10.700;2023-04-24T05:26:17;10.30;99.90
20528;DHT22;23612;50.894;10.700;2023-04-24T05:28:43;10.30;99.90
20528;DHT22;23612;50.894;10.700;2023-04-24T05:31:08;10.30;99.90
20528;DHT22;23612;50.894;10.700;2023-04-24T05:33:34;10.40;99.90
20528;DHT22;23612;50.894;10.700;2023-04-24T05:35:59;10.40;99.90
20528;DHT22;23612;50.894;10.700;2023-04-24T05:38:25;10.40;99.90
20528;DHT22;23612;50.894;10.700;2023-04-24T05:40:50;10.50;99.90
20528;DHT22;23612;50.894;10.700;2023-04-24T05:43:16;10.50;99.90
20528;DHT22;23612;50.894;10.700;2023-04-24T05:45:41;10.60;99.90
20528;DHT22;23612;50.894;10.700;2023-04-24T05:48:07;10.60;99.90
20528;DHT22;23612;50.894;10.700;2023-04-24T05:50:32;10.60;99.90
20528;DHT22;23612;50.894;10.700;2023-04-24T05:52:58;10.60;99.90
20528;DHT22;23612;50.894;10.700;2023-04-24T05:55:24;10.60;99.90
20528;DHT22;23612;50.894;10.700;2023-04-24T05:57:50;10.50;99.90
20528;DHT22;23612;50.894;10.700;2023-04-24T06:00:16;10.60;99.90
20528;DHT22;23612;50.894;10.700;2023-04-24T06:02:43;10.60;99.90
20528;DHT22;23612;50.894;10.700;2023-04-24T06:05:08;10.60;99.90
20528;DHT22;23612;50.894;10.700;2023-04-24T06:07:34;10.70;99.90
20528;DHT22;23612;50.894;10.700;2023-04-24T06:10:00;10.70;99.90
20528;DHT22;23612;50.894;10.700;2023-04-24T06:12:26;10.70;99.90
20528;DHT22;23612;50.894;10.700;2023-04-24T06:14:51;10.70;99.90
20528;DHT22;23612;50.894;10.700;2023-04-24T06:17:17;10.80;99.90
20528;DHT22;23612;50.894;10.700;2023-04-24T06:19:42;10.70;99.90
20528;DHT22;23612;50.894;10.700;2023-04-24T06:22:08;10.70;99.90
20528;DHT22;23612;50.894;10.700;2023-04-24T06:24:34;10.70;99.90
20528;DHT22;23612;50.894;10.700;2023-04-24T06:26:59;10.70;99.90
20528;DHT22;23612;50.894;10.700;2023-04-24T06:29:27;10.60;99.90
20528;DHT22;23612;50.894;10.700;2023-04-24T06:31:52;10.50;99.90
20528;DHT22;23612;50.894;10.700;2023-04-24T06:34:18;10.50;99.90
20528;DHT22;23612;50.894;10.700;2023-04-24T06:36:44;10.60;99.90
20528;DHT22;23612;50.894;10.700;2023-04-24T06:39:09;11.00;99.90
20528;DHT22;23612;50.894;10.700;2023-04-24T06:41:35;11.50;99.90
20528;DHT22;23612;50.894;10.700;2023-04-24T06:44:00;11.80;99.90
20528;DHT22;23612;50.894;10.700;2023-04-24T06:46:26;11.80;99.90
20528;DHT22;23612;50.894;10.700;2023-04-24T06:48:53;11.70;99.90
20528;DHT22;23612;50.894;10.700;2023-04-24T06:51:24;11.60;99.90
20528;DHT22;23612;50.894;10.700;2023-04-24T06:53:51;11.50;99.90
20528;DHT22;23612;50.894;10.700;2023-04-24T06:56:17;11.40;99.90
20528;DHT22;23612;50.894;10.700;2023-04-24T06:58:42;11.30;99.90
20528;DHT22;23612;50.894;10.700;2023-04-24T07:01:09;11.20;99.90
20528;DHT22;23612;50.894;10.700;2023-04-24T07:03:34;11.30;99.90
20528;DHT22;23612;50.894;10.700;2023-04-24T07:06:00;11.40;99.90
20528;DHT22;23612;50.894;10.700;2023-04-24T07:08:25;11.60;99.90
20528;DHT22;23612;50.894;10.700;2023-04-24T07:10:51;11.80;99.90
20528;DHT22;23612;50.894;10.700;2023-04-24T07:13:17;11.80;99.90
20528;DHT22;23612;50.894;10.700;2023-04-24T07:15:43;11.90;99.90
20528;DHT22;23612;50.894;10.700;2023-04-24T07:18:08;12.60;99.90
20528;DHT22;23612;50.894;10.700;2023-04-24T07:20:34;13.60;99.90
20528;DHT22;23612;50.894;10.700;2023-04-24T07:23:00;13.90;99.90
20528;DHT22;23612;50.894;10.700;2023-04-24T07:25:25;13.40;99.90
20528;DHT22;23612;50.894;10.700;2023-04-24T07:27:50;13.00;99.90
20528;DHT22;23612;50.894;10.700;2023-04-24T07:30:16;12.70;99.90
20528;DHT22;23612;50.894;10.700;2023-04-24T07:32:41;12.30;99.90
20528;DHT22;23612;50.894;10.700;2023-04-24T07:35:07;12.60;99.90
20528;DHT22;23612;50.894;10.700;2023-04-24T07:37:35;13.20;99.90
20528;DHT22;23612;50.894;10.700;2023-04-24T07:40:00;13.40;99.90
20528;DHT22;23612;50.894;10.700;2023-04-24T07:42:26;13.90;99.90
20528;DHT22;23612;50.894;10.700;2023-04-24T07:44:51;14.60;99.90
20528;DHT22;23612;50.894;10.700;2023-04-24T07:47:17;15.30;99.90
20528;DHT22;23612;50.894;10.700;2023-04-24T07:49:42;15.90;99.90
20528;DHT22;23612;50.894;10.700;2023-04-24T07:52:08;16.20;99.90
20528;DHT22;23612;50.894;10.700;2023-04-24T07:54:34;16.00;99.90
20528;DHT22;23612;50.894;10.700;2023-04-24T07:56:59;15.50;99.90
20528;DHT22;23612;50.894;10.700;2023-04-24T07:59:26;14.80;99.90
20528;DHT22;23612;50.894;10.700;2023-04-24T08:01:51;14.00;99.90
20528;DHT22;23612;50.894;10.700;2023-04-24T08:04:17;14.70;99.90
20528;DHT22;23612;50.894;10.700;2023-04-24T08:06:43;15.40;99.90
20528;DHT22;23612;50.894;10.700;2023-04-24T08:09:09;16.40;99.90
20528;DHT22;23612;50.894;10.700;2023-04-24T08:11:34;16.20;99.90
20528;DHT22;23612;50.894;10.700;2023-04-24T08:14:00;15.60;99.90
20528;DHT22;23612;50.894;10.700;2023-04-24T08:16:26;15.80;99.90
20528;DHT22;23612;50.894;10.700;2023-04-24T08:18:52;16.10;99.90
20528;DHT22;23612;50.894;10.700;2023-04-24T08:21:18;16.60;99.90
20528;DHT22;23612;50.894;10.700;2023-04-24T08:23:44;17.10;99.90
20528;DHT22;23612;50.894;10.700;2023-04-24T08:26:11;17.30;99.90
20528;DHT22;23612;50.894;10.700;2023-04-24T08:28:37;18.00;99.90
20528;DHT22;23612;50.894;10.700;2023-04-24T08:31:02;18.20;99.90
20528;DHT22;23612;50.894;10.700;2023-04-24T08:33:28;17.30;99.90
20528;DHT22;23612;50.894;10.700;2023-04-24T08:36:00;17.00;99.90
20528;DHT22;23612;50.894;10.700;2023-04-24T08:38:26;17.10;99.90
20528;DHT22;23612;50.894;10.700;2023-04-24T08:40:51;17.20;99.90
20528;DHT22;23612;50.894;10.700;2023-04-24T08:43:17;17.70;99.90
20528;DHT22;23612;50.894;10.700;2023-04-24T08:45:43;18.30;99.80
20528;DHT22;23612;50.894;10.700;2023-04-24T08:48:09;18.00;97.50
20528;DHT22;23612;50.894;10.700;2023-04-24T08:50:35;18.00;97.20
20528;DHT22;23612;50.894;10.700;2023-04-24T08:53:01;17.70;95.70
20528;DHT22;23612;50.894;10.700;2023-04-24T08:55:29;17.90;96.30
20528;DHT22;23612;50.894;10.700;2023-04-24T08:57:55;17.80;96.00
20528;DHT22;23612;50.894;10.700;2023-04-24T09:00:21;17.80;96.10
20528;DHT22;23612;50.894;10.700;2023-04-24T09:02:49;18.20;95.90
20528;DHT22;23612;50.894;10.700;2023-04-24T09:05:17;18.40;95.00
20528;DHT22;23612;50.894;10.700;2023-04-24T09:07:45;18.80;95.20
20528;DHT22;23612;50.894;10.700;2023-04-24T09:10:12;19.00;94.60
20528;DHT22;23612;50.894;10.700;2023-04-24T09:12:38;18.70;94.00
20528;DHT22;23612;50.894;10.700;2023-04-24T09:15:04;18.90;94.60
20528;DHT22;23612;50.894;10.700;2023-04-24T09:17:30;19.50;93.80
20528;DHT22;23612;50.894;10.700;2023-04-24T09:19:56;19.30;93.00
20528;DHT22;23612;50.894;10.700;2023-04-24T09:22:21;18.80;93.40
20528;DHT22;23612;50.894;10.700;2023-04-24T09:24:47;17.40;94.70
20528;DHT22;23612;50.894;10.700;2023-04-24T09:27:13;16.40;97.30
20528;DHT22;23612;50.894;10.700;2023-04-24T09:29:53;15.70;99.60
20528;DHT22;23612;50.894;10.700;2023-04-24T09:32:20;15.00;99.90
20528;DHT22;23612;50.894;10.700;2023-04-24T09:35:14;14.50;99.90
20528;DHT22;23612;50.894;10.700;2023-04-24T09:37:42;14.10;99.90
20528;DHT22;23612;50.894;10.700;2023-04-24T09:40:14;13.90;99.90
20528;DHT22;23612;50.894;10.700;2023-04-24T09:42:43;13.60;99.90
20528;DHT22;23612;50.894;10.700;2023-04-24T09:45:10;13.30;99.90
20528;DHT22;23612;50.894;10.700;2023-04-24T09:47:40;13.30;99.90
20528;DHT22;23612;50.894;10.700;2023-04-24T09:50:13;13.40;99.90
20528;DHT22;23612;50.894;10.700;2023-04-24T09:52:40;13.70;99.90
20528;DHT22;23612;50.894;10.700;2023-04-24T09:55:19;13.70;99.90
20528;DHT22;23612;50.894;10.700;2023-04-24T09:57:53;13.60;99.90
20528;DHT22;23612;50.894;10.700;2023-04-24T10:00:25;13.50;99.90
20528;DHT22;23612;50.894;10.700;2023-04-24T10:03:02;13.80;99.90
20528;DHT22;23612;50.894;10.700;2023-04-24T10:05:33;14.40;99.90
20528;DHT22;23612;50.894;10.700;2023-04-24T10:08:09;15.30;99.90
20528;DHT22;23612;50.894;10.700;2023-04-24T10:10:41;16.70;99.90
20528;DHT22;23612;50.894;10.700;2023-04-24T10:13:11;16.60;97.10
20528;DHT22;23612;50.894;10.700;2023-04-24T10:15:37;16.00;97.30
20528;DHT22;23612;50.894;10.700;2023-04-24T10:18:04;15.90;98.70
20528;DHT22;23612;50.894;10.700;2023-04-24T10:20:31;15.20;98.90
20528;DHT22;23612;50.894;10.700;2023-04-24T10:22:58;14.50;99.90
20528;DHT22;23612;50.894;10.700;2023-04-24T10:25:29;14.40;99.90
20528;DHT22;23612;50.894;10.700;2023-04-24T10:27:56;14.40;99.90
20528;DHT22;23612;50.894;10.700;2023-04-24T10:30:32;15.00;99.90
20528;DHT22;23612;50.894;10.700;2023-04-24T10:33:01;16.10;99.90
20528;DHT22;23612;50.894;10.700;2023-04-24T10:35:26;16.40;99.70
20528;DHT22;23612;50.894;10.700;2023-04-24T10:38:05;16.30;99.20
20528;DHT22;23612;50.894;10.700;2023-04-24T10:40:35;17.40;98.30
20528;DHT22;23612;50.894;10.700;2023-04-24T10:43:05;19.00;96.90
20528;DHT22;23612;50.894;10.700;2023-04-24T10:45:36;19.20;93.60
20528;DHT22;23612;50.894;10.700;2023-04-24T10:48:07;18.20;94.20
20528;DHT22;23612;50.894;10.700;2023-04-24T10:53:13;16.70;96.50
20528;DHT22;23612;50.894;10.700;2023-04-24T10:56:05;17.00;96.30
20528;DHT22;23612;50.894;10.700;2023-04-24T10:58:43;16.70;95.80
20528;DHT22;23612;50.894;10.700;2023-04-24T11:01:30;15.90;97.00
20528;DHT22;23612;50.894;10.700;2023-04-24T11:03:58;15.10;99.70
20528;DHT22;23612;50.894;10.700;2023-04-24T11:06:32;14.60;99.90
20528;DHT22;23612;50.894;10.700;2023-04-24T11:09:09;14.10;99.90
20528;DHT22;23612;50.894;10.700;2023-04-24T11:11:38;13.50;99.90
20528;DHT22;23612;50.894;10.700;2023-04-24T11:14:09;13.20;99.90
20528;DHT22;23612;50.894;10.700;2023-04-24T11:16:44;12.90;99.90
20528;DHT22;23612;50.894;10.700;2023-04-24T11:24:26;12.20;99.90
20528;DHT22;23612;50.894;10.700;2023-04-24T11:27:04;12.00;99.90
20528;DHT22;23612;50.894;10.700;2023-04-24T11:29:58;12.00;99.90
20528;DHT22;23612;50.894;10.700;2023-04-24T11:32:36;12.20;99.90
20528;DHT22;23612;50.894;10.700;2023-04-24T11:35:22;12.50;99.90
20528;DHT22;23612;50.894;10.700;2023-04-24T11:37:53;13.00;99.90
20528;DHT22;23612;50.894;10.700;2023-04-24T11:40:21;13.60;99.90
20528;DHT22;23612;50.894;10.700;2023-04-24T11:42:51;14.00;99.90
20528;DHT22;23612;50.894;10.700;2023-04-24T11:45:22;14.30;99.90
20528;DHT22;23612;50.894;10.700;2023-04-24T11:47:47;15.40;99.90
20528;DHT22;23612;50.894;10.700;2023-04-24T11:50:18;16.10;99.90
20528;DHT22;23612;50.894;10.700;2023-04-24T11:52:46;16.30;99.90
20528;DHT22;23612;50.894;10.700;2023-04-24T11:57:51;16.30;99.90
20528;DHT22;23612;50.894;10.700;2023-04-24T12:00:17;16.50;99.90
20528;DHT22;23612;50.894;10.700;2023-04-24T12:02:44;16.00;99.90
20528;DHT22;23612;50.894;10.700;2023-04-24T12:05:19;15.60;99.90
20528;DHT22;23612;50.894;10.700;2023-04-24T12:07:45;15.90;99.90
20528;DHT22;23612;50.894;10.700;2023-04-24T12:10:10;16.80;99.90
20528;DHT22;23612;50.894;10.700;2023-04-24T12:12:36;16.90;99.90
20528;DHT22;23612;50.894;10.700;2023-04-24T12:15:06;16.70;99.90
20528;DHT22;23612;50.894;10.700;2023-04-24T12:17:33;15.90;99.90
20528;DHT22;23612;50.894;10.700;2023-04-24T12:20:04;15.10;99.90
20528;DHT22;23612;50.894;10.700;2023-04-24T12:22:55;14.70;99.90
20528;DHT22;23612;50.894;10.700;2023-04-24T12:25:23;13.90;99.90
20528;DHT22;23612;50.894;10.700;2023-04-24T12:28:15;13.50;99.90
20528;DHT22;23612;50.894;10.700;2023-04-24T12:30:43;12.80;99.90
20528;DHT22;23612;50.894;10.700;2023-04-24T12:33:10;12.10;99.90
20528;DHT22;23612;50.894;10.700;2023-04-24T12:35:36;11.90;99.90
20528;DHT22;23612;50.894;10.700;2023-04-24T12:38:15;11.90;99.90
20528;DHT22;23612;50.894;10.700;2023-04-24T12:40:42;11.90;99.90
20528;DHT22;23612;50.894;10.700;2023-04-24T12:43:16;12.30;99.90
20528;DHT22;23612;50.894;10.700;2023-04-24T12:45:42;13.30;99.90
20528;DHT22;23612;50.894;10.700;2023-04-24T12:48:08;14.10;99.90
20528;DHT22;23612;50.894;10.700;2023-04-24T12:50:33;14.50;99.90
20528;DHT22;23612;50.894;10.700;2023-04-24T12:53:00;14.60;99.90
20528;DHT22;23612;50.894;10.700;2023-04-24T12:55:25;14.60;99.90
20528;DHT22;23612;50.894;10.700;2023-04-24T12:57:50;14.80;99.90
20528;DHT22;23612;50.894;10.700;2023-04-24T13:00:17;14.70;99.90
20528;DHT22;23612;50.894;10.700;2023-04-24T13:02:43;14.50;99.90
20528;DHT22;23612;50.894;10.700;2023-04-24T13:05:08;14.30;99.90
20528;DHT22;23612;50.894;10.700;2023-04-24T13:07:34;14.00;99.90
20528;DHT22;23612;50.894;10.700;2023-04-24T13:09:59;13.70;99.90
20528;DHT22;23612;50.894;10.700;2023-04-24T13:12:25;13.50;99.90
20528;DHT22;23612;50.894;10.700;2023-04-24T13:14:51;13.10;99.90
20528;DHT22;23612;50.894;10.700;2023-04-24T13:17:17;13.20;99.90
20528;DHT22;23612;50.894;10.700;2023-04-24T13:19:44;13.40;99.90
20528;DHT22;23612;50.894;10.700;2023-04-24T13:22:11;13.80;99.90
20528;DHT22;23612;50.894;10.700;2023-04-24T13:24:37;14.10;99.90
20528;DHT22;23612;50.894;10.700;2023-04-24T13:27:03;14.20;99.90
20528;DHT22;23612;50.894;10.700;2023-04-24T13:29:29;14.10;99.90
20528;DHT22;23612;50.894;10.700;2023-04-24T13:31:55;13.50;99.90
20528;DHT22;23612;50.894;10.700;2023-04-24T13:34:24;12.90;99.90
20528;DHT22;23612;50.894;10.700;2023-04-24T13:36:52;12.70;99.90
20528;DHT22;23612;50.894;10.700;2023-04-24T13:39:17;12.70;99.90
20528;DHT22;23612;50.894;10.700;2023-04-24T13:41:43;12.90;99.90
20528;DHT22;23612;50.894;10.700;2023-04-24T13:44:08;13.00;99.90
20528;DHT22;23612;50.894;10.700;2023-04-24T13:46:34;12.80;99.90
20528;DHT22;23612;50.894;10.700;2023-04-24T13:49:01;12.60;99.90
20528;DHT22;23612;50.894;10.700;2023-04-24T13:51:27;12.80;99.90
20528;DHT22;23612;50.894;10.700;2023-04-24T13:53:54;12.90;99.90
20528;DHT22;23612;50.894;10.700;2023-04-24T13:56:20;12.90;99.90
20528;DHT22;23612;50.894;10.700;2023-04-24T13:58:46;13.10;99.90
20528;DHT22;23612;50.894;10.700;2023-04-24T14:01:12;12.90;99.90
20528;DHT22;23612;50.894;10.700;2023-04-24T14:03:38;12.80;99.90
20528;DHT22;23612;50.894;10.700;2023-04-24T14:06:03;12.60;99.90
20528;DHT22;23612;50.894;10.700;2023-04-24T14:08:29;12.40;99.90
20528;DHT22;23612;50.894;10.700;2023-04-24T14:10:54;12.10;99.90
20528;DHT22;23612;50.894;10.700;2023-04-24T14:13:20;11.90;99.90
20528;DHT22;23612;50.894;10.700;2023-04-24T14:15:46;11.80;99.90
20528;DHT22;23612;50.894;10.700;2023-04-24T14:18:11;11.60;99.90
20528;DHT22;23612;50.894;10.700;2023-04-24T14:20:37;11.60;99.90
20528;DHT22;23612;50.894;10.700;2023-04-24T14:23:03;11.70;99.90
20528;DHT22;23612;50.894;10.700;2023-04-24T14:25:29;11.90;99.90
20528;DHT22;23612;50.894;10.700;2023-04-24T14:27:56;12.00;99.90
20528;DHT22;23612;50.894;10.700;2023-04-24T14:30:22;12.20;99.90
20528;DHT22;23612;50.894;10.700;2023-04-24T14:32:48;12.40;99.90
20528;DHT22;23612;50.894;10.700;2023-04-24T14:35:14;12.30;99.90
20528;DHT22;23612;50.894;10.700;2023-04-24T14:37:40;12.10;99.90
20528;DHT22;23612;50.894;10.700;2023-04-24T14:40:08;12.00;99.90
20528;DHT22;23612;50.894;10.700;2023-04-24T14:42:34;12.00;99.90
20528;DHT22;23612;50.894;10.700;2023-04-24T14:45:00;12.30;99.90
20528;DHT22;23612;50.894;10.700;2023-04-24T14:47:25;12.30;99.90
20528;DHT22;23612;50.894;10.700;2023-04-24T14:49:51;12.20;99.90
20528;DHT22;23612;50.894;10.700;2023-04-24T14:52:17;11.90;99.90
20528;DHT22;23612;50.894;10.700;2023-04-24T14:54:43;11.80;99.90
20528;DHT22;23612;50.894;10.700;2023-04-24T14:57:08;11.90;99.90
20528;DHT22;23612;50.894;10.700;2023-04-24T14:59:34;12.00;99.90
20528;DHT22;23612;50.894;10.700;2023-04-24T15:02:00;11.90;99.90
20528;DHT22;23612;50.894;10.700;2023-04-24T15:04:25;11.90;99.90
20528;DHT22;23612;50.894;10.700;2023-04-24T15:06:52;11.80;99.90
20528;DHT22;23612;50.894;10.700;2023-04-24T15:09:19;11.80;99.90
20528;DHT22;23612;50.894;10.700;2023-04-24T15:11:45;11.80;99.90
20528;DHT22;23612;50.894;10.700;2023-04-24T15:14:11;11.80;99.90
20528;DHT22;23612;50.894;10.700;2023-04-24T15:16:36;11.60;99.90
20528;DHT22;23612;50.894;10.700;2023-04-24T15:19:02;11.40;99.90
20528;DHT22;23612;50.894;10.700;2023-04-24T15:21:27;11.20;99.90
20528;DHT22;23612;50.894;10.700;2023-04-24T15:23:53;11.30;99.90
20528;DHT22;23612;50.894;10.700;2023-04-24T15:26:18;11.40;99.90
20528;DHT22;23612;50.894;10.700;2023-04-24T15:28:45;11.40;99.90